Terminal Aerodrome Forecast
Issued by NWS

Home | Current Version | Previous Version | Text Only | Print | Product List | Glossary On
Versions: 1 2 3 4 5 6 7 8 9 10 11 12 13 14 15 16
000
FTUS44 KLIX 290520
TAFHDC
TAF
KHDC 290520Z 2906/3006 30003KT P6SM SCT120
     FM290730 32005KT P6SM VCSH BKN090
      TEMPO 2908/2912 3SM TSRA BKN060CB
     FM291400 24004KT P6SM BKN090
     FM292200 24004KT P6SM VCTS BKN090CB=

USA.gov is the U.S. government's official web portal to all federal, state and local government web resources and services.